createdAt,value
2022-09-22T00:01:07.808Z,3.88
2022-09-22T00:03:41.889Z,4.72
2022-09-22T00:06:12.170Z,4.03
2022-09-22T00:08:41.949Z,3.90
2022-09-22T00:11:21.635Z,4.40
2022-09-22T00:13:52.394Z,3.78
2022-09-22T00:16:25.916Z,4.50
2022-09-22T00:18:52.663Z,3.70
2022-09-22T00:21:22.419Z,3.67
2022-09-22T00:23:49.870Z,3.50
2022-09-22T00:26:19.539Z,3.95
2022-09-22T00:28:47.801Z,3.42
2022-09-22T00:31:17.674Z,3.75
2022-09-22T00:33:46.311Z,4.10
2022-09-22T00:36:14.720Z,3.83
2022-09-22T00:38:41.968Z,4.35
2022-09-22T00:41:15.732Z,3.25
2022-09-22T00:43:46.989Z,3.13
2022-09-22T00:46:19.328Z,2.40
2022-09-22T00:48:54.980Z,3.60
2022-09-22T00:51:25.713Z,3.30
2022-09-22T00:53:54.253Z,3.45
2022-09-22T00:56:31.780Z,3.53
2022-09-22T00:59:06.988Z,3.63
2022-09-22T01:01:40.253Z,3.53
2022-09-22T01:04:07.956Z,3.00
2022-09-22T01:06:37.155Z,3.20
2022-09-22T01:09:04.260Z,3.20
2022-09-22T01:11:32.947Z,3.15
2022-09-22T01:14:29.289Z,2.70
2022-09-22T01:17:09.516Z,3.20
2022-09-22T01:20:01.023Z,3.08
2022-09-22T01:22:57.912Z,3.38
2022-09-22T01:25:39.627Z,3.42
2022-09-22T01:28:36.236Z,3.05
2022-09-22T01:31:18.967Z,3.10
2022-09-22T01:34:16.744Z,3.83
2022-09-22T01:37:00.861Z,3.30
2022-09-22T01:39:37.970Z,3.30
2022-09-22T01:42:18.189Z,3.67
2022-09-22T01:45:02.411Z,3.03
2022-09-22T01:47:53.288Z,3.42
2022-09-22T01:50:33.088Z,2.95
2022-09-22T01:53:06.193Z,3.25
2022-09-22T01:55:39.115Z,3.05
2022-09-22T01:58:12.741Z,3.70
2022-09-22T02:00:44.023Z,2.92
2022-09-22T02:03:17.263Z,3.65
2022-09-22T02:05:52.363Z,3.05
2022-09-22T02:08:50.771Z,3.10
2022-09-22T02:11:17.449Z,3.17
2022-09-22T02:13:44.947Z,3.63
2022-09-22T02:16:14.675Z,3.13
2022-09-22T02:18:54.331Z,3.15
2022-09-22T02:21:21.872Z,2.72
2022-09-22T02:23:49.731Z,3.35
2022-09-22T02:26:23.690Z,3.25
2022-09-22T02:28:53.973Z,3.78
2022-09-22T02:31:23.509Z,3.00
2022-09-22T02:33:51.926Z,4.40
2022-09-22T02:37:00.120Z,3.20
2022-09-22T02:39:39.016Z,3.20
2022-09-22T02:42:11.445Z,3.65
2022-09-22T02:44:47.298Z,3.72
2022-09-22T02:47:19.454Z,3.25
2022-09-22T02:49:48.043Z,2.97
2022-09-22T02:52:15.158Z,3.38
2022-09-22T02:54:41.806Z,3.55
2022-09-22T02:57:09.754Z,3.40
2022-09-22T02:59:36.434Z,2.67
2022-09-22T03:02:03.093Z,2.95
2022-09-22T03:04:29.786Z,3.00
2022-09-22T03:06:56.578Z,2.63
2022-09-22T03:09:23.240Z,3.30
2022-09-22T03:11:49.885Z,3.22
2022-09-22T03:14:16.557Z,3.03
2022-09-22T03:16:43.229Z,3.13
2022-09-22T03:19:10.092Z,3.10
2022-09-22T03:21:36.747Z,2.13
2022-09-22T03:24:03.952Z,3.65
2022-09-22T03:26:30.643Z,3.33
2022-09-22T03:28:57.459Z,3.00
2022-09-22T03:31:24.261Z,2.55
2022-09-22T03:33:52.834Z,2.97
2022-09-22T03:36:19.930Z,2.28
2022-09-22T03:38:46.671Z,3.13
2022-09-22T03:41:13.329Z,2.90
2022-09-22T03:43:39.994Z,2.22
2022-09-22T03:46:07.041Z,2.88
2022-09-22T03:48:33.752Z,2.83
2022-09-22T03:51:00.474Z,2.80
2022-09-22T03:53:27.833Z,3.17
2022-09-22T03:56:09.133Z,3.30
2022-09-22T03:58:37.310Z,3.53
2022-09-22T04:01:05.625Z,2.42
2022-09-22T04:03:32.836Z,3.28
2022-09-22T04:06:00.114Z,2.70
2022-09-22T04:08:26.861Z,3.65
2022-09-22T04:10:54.044Z,2.83
2022-09-22T04:13:20.755Z,2.92
2022-09-22T04:15:47.438Z,3.40
2022-09-22T04:18:14.497Z,2.83
2022-09-22T04:20:43.540Z,2.40
2022-09-22T04:23:11.379Z,2.40
2022-09-22T04:25:38.104Z,2.88
2022-09-22T04:28:05.928Z,2.92
2022-09-22T04:30:33.826Z,3.38
2022-09-22T04:33:01.132Z,3.05
2022-09-22T04:35:28.424Z,3.50
2022-09-22T04:37:56.156Z,3.13
2022-09-22T04:40:24.120Z,2.28
2022-09-22T04:42:51.450Z,3.35
2022-09-22T04:45:18.536Z,3.28
2022-09-22T04:47:50.004Z,3.78
2022-09-22T04:50:18.352Z,3.72
2022-09-22T04:52:46.883Z,3.35
2022-09-22T04:55:14.247Z,3.10
2022-09-22T04:57:41.643Z,3.80
2022-09-22T05:00:09.944Z,3.72
2022-09-22T05:02:36.667Z,3.15
2022-09-22T05:05:05.504Z,3.05
2022-09-22T05:07:44.858Z,2.65
2022-09-22T05:10:14.942Z,2.75
2022-09-22T05:12:42.470Z,2.92
2022-09-22T05:15:11.019Z,3.10
2022-09-22T05:17:38.343Z,3.10
2022-09-22T05:20:05.934Z,3.50
2022-09-22T05:22:37.655Z,3.50
2022-09-22T05:25:08.581Z,3.78
2022-09-22T05:27:35.853Z,3.08
2022-09-22T05:30:02.503Z,3.78
2022-09-22T05:32:29.143Z,3.63
2022-09-22T05:34:55.925Z,2.97
2022-09-22T05:37:22.627Z,3.13
2022-09-22T05:39:49.295Z,3.63
2022-09-22T05:42:15.921Z,3.72
2022-09-22T05:44:42.569Z,3.30
2022-09-22T05:47:09.271Z,3.83
2022-09-22T05:49:35.907Z,2.92
2022-09-22T05:52:03.169Z,3.47
2022-09-22T05:54:29.866Z,3.22
2022-09-22T05:56:56.592Z,3.97
2022-09-22T05:59:23.256Z,3.70
2022-09-22T06:01:49.919Z,4.20
2022-09-22T06:04:16.618Z,4.32
2022-09-22T06:06:43.352Z,5.15
2022-09-22T06:09:10.035Z,5.60
2022-09-22T06:11:36.802Z,5.43
2022-09-22T06:14:03.525Z,4.68
2022-09-22T06:16:31.731Z,4.40
2022-09-22T06:18:58.422Z,4.72
2022-09-22T06:21:25.886Z,5.45
2022-09-22T06:23:52.709Z,6.55
2022-09-22T06:26:19.395Z,5.93
2022-09-22T06:28:46.994Z,5.30
2022-09-22T06:31:15.283Z,5.95
2022-09-22T06:33:48.159Z,5.25
2022-09-22T06:36:23.150Z,5.80
2022-09-22T06:38:50.782Z,5.43
2022-09-22T06:41:17.487Z,5.20
2022-09-22T06:43:44.469Z,5.15
2022-09-22T06:46:13.546Z,4.82
2022-09-22T06:48:40.500Z,5.72
2022-09-22T06:51:07.272Z,4.78
2022-09-22T06:53:33.971Z,3.83
2022-09-22T06:56:03.272Z,4.50
2022-09-22T06:58:35.542Z,3.70
2022-09-22T07:01:14.886Z,3.58
2022-09-22T07:03:43.051Z,3.50
2022-09-22T07:06:10.950Z,3.78
2022-09-22T07:08:39.416Z,3.25
2022-09-22T07:11:08.340Z,3.13
2022-09-22T07:13:38.974Z,2.70
2022-09-22T07:16:12.043Z,2.70
2022-09-22T07:18:44.465Z,2.40
2022-09-22T07:21:16.670Z,2.50
2022-09-22T07:23:44.228Z,2.20
2022-09-22T07:26:17.037Z,2.20
2022-09-22T07:28:46.814Z,2.30
2022-09-22T07:31:15.348Z,1.90
2022-09-22T07:33:44.032Z,1.92
2022-09-22T07:36:18.882Z,1.60
2022-09-22T07:38:51.315Z,2.30
2022-09-22T07:41:23.039Z,2.30
2022-09-22T07:43:52.225Z,2.08
2022-09-22T07:46:19.799Z,1.92
2022-09-22T07:48:47.933Z,2.40
2022-09-22T07:51:23.473Z,2.00
2022-09-22T07:54:07.349Z,1.70
2022-09-22T07:56:43.163Z,1.55
2022-09-22T07:59:11.837Z,1.40
2022-09-22T08:01:44.196Z,1.42
2022-09-22T08:04:12.525Z,1.40
2022-09-22T08:06:39.175Z,1.42
2022-09-22T08:09:06.875Z,1.55
2022-09-22T08:11:33.889Z,1.40
2022-09-22T08:14:06.397Z,1.40
2022-09-22T08:16:36.073Z,1.27
2022-09-22T08:19:10.443Z,1.38
2022-09-22T08:21:47.773Z,1.30
2022-09-22T08:24:21.212Z,1.33
2022-09-22T08:26:50.290Z,1.20
2022-09-22T08:29:16.986Z,1.25
2022-09-22T08:31:45.353Z,1.38
2022-09-22T08:34:14.069Z,1.40
2022-09-22T08:36:46.107Z,1.40
2022-09-22T08:39:12.794Z,1.35
2022-09-22T08:41:55.144Z,1.45
2022-09-22T08:44:46.436Z,1.35
2022-09-22T08:48:08.133Z,1.38
2022-09-22T08:51:18.183Z,1.48
2022-09-22T08:53:50.315Z,1.10
2022-09-22T08:56:36.812Z,1.30
2022-09-22T08:59:14.192Z,1.20
2022-09-22T09:01:55.772Z,1.10
2022-09-22T09:04:44.903Z,1.00
2022-09-22T09:07:11.599Z,7.72
2022-09-22T09:10:00.352Z,1.48
2022-09-22T09:12:52.981Z,1.02
2022-09-22T09:15:30.546Z,1.30
2022-09-22T09:18:02.765Z,0.93
2022-09-22T09:20:42.107Z,0.90
2022-09-22T09:23:21.286Z,0.80
2022-09-22T09:25:52.286Z,0.80
2022-09-22T09:28:27.710Z,0.90
2022-09-22T09:31:05.867Z,0.60
2022-09-22T09:33:48.501Z,0.82
2022-09-22T09:36:18.551Z,0.70
2022-09-22T09:38:51.789Z,0.80
2022-09-22T09:41:24.959Z,0.75
2022-09-22T09:43:54.443Z,0.70
2022-09-22T09:46:39.833Z,0.65
2022-09-22T09:49:17.791Z,0.75
2022-09-22T09:51:51.513Z,0.60
2022-09-22T09:54:19.378Z,0.50
2022-09-22T09:57:06.472Z,0.50
2022-09-22T09:59:52.817Z,1.13
2022-09-22T10:02:27.350Z,0.50
2022-09-22T10:05:07.646Z,0.50
2022-09-22T10:07:44.450Z,0.50
2022-09-22T10:10:29.196Z,0.80
2022-09-22T10:13:21.820Z,0.60
2022-09-22T10:16:02.020Z,0.75
2022-09-22T10:18:40.454Z,0.80
2022-09-22T10:21:19.855Z,0.70
2022-09-22T10:23:54.568Z,0.70
2022-09-22T10:26:32.732Z,0.60
2022-09-22T10:29:20.845Z,0.50
2022-09-22T10:32:02.559Z,0.50
2022-09-22T10:34:41.149Z,0.70
2022-09-22T10:37:11.565Z,0.50
2022-09-22T10:39:51.344Z,0.50
2022-09-22T10:42:28.550Z,0.70
2022-09-22T10:45:00.867Z,0.68
2022-09-22T10:47:44.761Z,0.60
2022-09-22T10:50:38.266Z,0.70
2022-09-22T10:53:27.384Z,1.08
2022-09-22T10:56:14.921Z,0.80
2022-09-22T10:58:58.151Z,0.70
2022-09-22T11:01:51.277Z,0.80
2022-09-22T11:04:47.261Z,0.80
2022-09-22T11:07:51.676Z,0.75
2022-09-22T11:10:45.695Z,0.70
2022-09-22T11:14:01.062Z,0.70
2022-09-22T11:16:49.897Z,0.70
2022-09-22T11:19:33.119Z,0.68
2022-09-22T11:22:47.469Z,0.80
2022-09-22T11:25:45.447Z,0.63
2022-09-22T11:29:00.621Z,0.80
2022-09-22T11:31:43.026Z,0.90
2022-09-22T11:34:51.917Z,0.70
2022-09-22T11:37:33.165Z,0.70
2022-09-22T11:40:20.021Z,0.88
2022-09-22T11:43:05.735Z,0.80
2022-09-22T11:45:42.778Z,0.90
2022-09-22T11:48:26.442Z,0.80
2022-09-22T11:51:32.004Z,0.70
2022-09-22T11:54:14.513Z,0.73
2022-09-22T11:56:53.286Z,0.80
2022-09-22T11:59:33.760Z,0.90
2022-09-22T12:02:06.435Z,0.90
2022-09-22T12:04:42.845Z,0.80
2022-09-22T12:09:52.100Z,1.00
2022-09-22T12:12:22.506Z,1.00
2022-09-22T12:14:59.142Z,1.00
2022-09-22T12:17:46.994Z,1.00
2022-09-22T12:20:39.369Z,0.93
2022-09-22T12:23:14.478Z,0.70
2022-09-22T12:25:49.216Z,1.00
2022-09-22T12:28:19.727Z,1.15
2022-09-22T12:31:10.572Z,0.73
2022-09-22T12:33:39.838Z,0.80
2022-09-22T12:36:07.392Z,0.90
2022-09-22T12:38:34.747Z,1.73
2022-09-22T12:41:04.381Z,9.75
2022-09-22T12:43:33.961Z,1.10
2022-09-22T12:46:06.264Z,1.05
2022-09-22T12:48:36.146Z,1.20
2022-09-22T12:51:24.789Z,0.90
2022-09-22T12:54:12.329Z,1.27
2022-09-22T12:56:53.099Z,1.33
2022-09-22T12:59:38.583Z,1.45
2022-09-22T13:02:13.997Z,1.23
2022-09-22T13:04:56.328Z,0.93
2022-09-22T13:07:44.371Z,1.27
2022-09-22T13:10:26.575Z,1.00
2022-09-22T13:13:02.706Z,1.10
2022-09-22T13:15:45.658Z,1.30
2022-09-22T13:18:34.867Z,0.93
2022-09-22T13:21:11.941Z,0.90
2022-09-22T13:23:54.327Z,0.93
2022-09-22T13:26:37.739Z,1.20
2022-09-22T13:29:17.299Z,0.95
2022-09-22T13:31:46.512Z,1.23
2022-09-22T13:34:34.304Z,1.15
2022-09-22T13:37:14.914Z,1.20
2022-09-22T13:39:47.404Z,1.20
2022-09-22T13:42:17.016Z,1.20
2022-09-22T13:44:50.931Z,1.00
2022-09-22T13:47:23.233Z,1.17
2022-09-22T13:49:56.311Z,1.00
2022-09-22T13:52:27.442Z,1.13
2022-09-22T13:54:59.416Z,1.20
2022-09-22T13:57:31.255Z,1.35
2022-09-22T14:00:00.135Z,1.00
2022-09-22T14:02:31.508Z,0.95
2022-09-22T14:05:08.721Z,1.10
2022-09-22T14:10:24.829Z,2.20
2022-09-22T14:12:51.601Z,1.00
2022-09-22T14:15:40.168Z,1.35
2022-09-22T14:18:17.013Z,1.02
2022-09-22T14:20:45.519Z,1.60
2022-09-22T14:23:23.466Z,1.27
2022-09-22T14:25:50.204Z,0.88
2022-09-22T14:28:24.920Z,1.20
2022-09-22T14:30:52.278Z,1.08
2022-09-22T14:33:27.109Z,1.33
2022-09-22T14:36:03.428Z,1.17
2022-09-22T14:38:34.917Z,1.33
2022-09-22T14:41:03.130Z,1.30
2022-09-22T14:43:42.167Z,1.35
2022-09-22T14:46:33.711Z,1.48
2022-09-22T14:49:36.977Z,1.48
2022-09-22T14:52:28.604Z,1.40
2022-09-22T14:54:59.369Z,1.50
2022-09-22T14:57:27.619Z,1.65
2022-09-22T15:00:16.682Z,1.50
2022-09-22T15:02:51.819Z,1.45
2022-09-22T15:05:29.568Z,1.30
2022-09-22T15:07:58.519Z,1.40
2022-09-22T15:10:34.061Z,1.48
2022-09-22T15:13:27.016Z,1.20
2022-09-22T15:15:54.173Z,1.05
2022-09-22T15:18:21.747Z,1.10
2022-09-22T15:20:58.885Z,1.40
2022-09-22T15:23:44.919Z,1.20
2022-09-22T15:26:25.172Z,1.10
2022-09-22T15:28:55.389Z,1.17
2022-09-22T15:31:26.899Z,1.10
2022-09-22T15:34:00.285Z,1.05
2022-09-22T15:36:33.014Z,0.93
2022-09-22T15:39:06.966Z,0.90
2022-09-22T15:41:34.981Z,1.05
2022-09-22T15:44:03.086Z,1.00
2022-09-22T15:46:38.014Z,1.17
2022-09-22T15:49:22.691Z,1.10
2022-09-22T15:51:50.464Z,1.10
2022-09-22T15:54:24.056Z,1.00
2022-09-22T15:56:57.820Z,1.40
2022-09-22T15:59:28.249Z,1.27
2022-09-22T16:01:56.964Z,1.65
2022-09-22T16:04:24.208Z,1.33
2022-09-22T16:07:01.190Z,1.10
2022-09-22T16:09:28.229Z,1.15
2022-09-22T16:11:55.935Z,1.30
2022-09-22T16:14:23.255Z,1.10
2022-09-22T16:16:52.363Z,1.30
2022-09-22T16:19:20.422Z,1.20
2022-09-22T16:21:54.345Z,1.10
2022-09-22T16:24:22.692Z,1.42
2022-09-22T16:26:51.950Z,1.20
2022-09-22T16:29:19.156Z,1.13
2022-09-22T16:31:46.399Z,1.40
2022-09-22T16:34:13.659Z,1.73
2022-09-22T16:36:41.791Z,1.33
2022-09-22T16:39:09.082Z,2.35
2022-09-22T16:41:36.879Z,2.22
2022-09-22T16:44:04.720Z,2.17
2022-09-22T16:46:35.217Z,1.70
2022-09-22T16:49:07.627Z,1.60
2022-09-22T16:51:40.860Z,1.70
2022-09-22T16:54:12.276Z,1.40
2022-09-22T16:56:39.750Z,1.77
2022-09-22T16:59:07.495Z,1.80
2022-09-22T17:01:37.701Z,2.08
2022-09-22T17:04:06.335Z,2.47
2022-09-22T17:06:33.908Z,2.03
2022-09-22T17:09:00.914Z,2.03
2022-09-22T17:11:30.921Z,2.25
2022-09-22T17:14:11.897Z,1.98
2022-09-22T17:16:47.985Z,2.40
2022-09-22T17:19:20.115Z,3.40
2022-09-22T17:21:55.307Z,3.40
2022-09-22T17:24:24.796Z,3.78
2022-09-22T17:26:58.538Z,3.58
2022-09-22T17:29:31.712Z,3.63
2022-09-22T17:32:03.533Z,3.25
2022-09-22T17:34:46.660Z,2.88
2022-09-22T17:37:15.947Z,2.90
2022-09-22T17:39:43.579Z,2.95
2022-09-22T17:42:11.071Z,2.85
2022-09-22T17:44:37.941Z,2.92
2022-09-22T17:47:23.240Z,2.90
2022-09-22T17:50:08.533Z,3.50
2022-09-22T17:52:53.697Z,2.60
2022-09-22T17:55:22.892Z,3.10
2022-09-22T17:57:51.960Z,3.22
2022-09-22T18:00:23.751Z,3.30
2022-09-22T18:02:53.833Z,2.85
2022-09-22T18:05:25.512Z,3.53
2022-09-22T18:07:57.826Z,3.03
2022-09-22T18:10:32.217Z,3.15
2022-09-22T18:12:59.713Z,4.05
2022-09-22T18:15:28.109Z,4.15
2022-09-22T18:17:57.702Z,6.03
2022-09-22T18:20:25.337Z,5.05
2022-09-22T18:22:52.249Z,7.18
2022-09-22T18:25:19.764Z,7.72
2022-09-22T18:27:48.485Z,6.03
2022-09-22T18:30:17.050Z,6.15
2022-09-22T18:32:44.028Z,5.60
2022-09-22T18:35:12.847Z,5.47
2022-09-22T18:37:39.982Z,4.93
2022-09-22T18:40:08.079Z,4.63
2022-09-22T18:42:36.620Z,4.65
2022-09-22T18:45:04.089Z,3.50
2022-09-22T18:47:30.925Z,4.05
2022-09-22T18:49:59.192Z,3.72
2022-09-22T18:52:26.078Z,3.10
2022-09-22T18:54:54.325Z,4.03
2022-09-22T18:57:22.882Z,3.83
2022-09-22T18:59:51.466Z,3.88
2022-09-22T19:02:21.368Z,4.47
2022-09-22T19:04:49.285Z,4.35
2022-09-22T19:07:38.917Z,3.88
2022-09-22T19:10:09.504Z,4.55
2022-09-22T19:12:39.319Z,4.43
2022-09-22T19:15:16.617Z,4.50
2022-09-22T19:17:47.832Z,4.47
2022-09-22T19:20:21.478Z,4.03
2022-09-22T19:22:50.846Z,3.72
2022-09-22T19:25:22.078Z,5.03
2022-09-22T19:27:51.230Z,4.05
2022-09-22T19:30:22.895Z,4.10
2022-09-22T19:32:57.809Z,4.85
2022-09-22T19:35:26.292Z,4.50
2022-09-22T19:37:59.378Z,4.40
2022-09-22T19:40:27.255Z,5.25
2022-09-22T19:42:55.525Z,4.60
2022-09-22T19:45:25.313Z,4.65
2022-09-22T19:47:57.303Z,4.50
2022-09-22T19:50:26.450Z,4.82
2022-09-22T19:52:54.344Z,4.80
2022-09-22T19:55:23.344Z,5.13
2022-09-22T19:57:52.656Z,5.30
2022-09-22T20:00:27.004Z,5.28
2022-09-22T20:03:00.950Z,4.88
2022-09-22T20:05:34.073Z,4.90
2022-09-22T20:08:01.735Z,5.30
2022-09-22T20:10:31.961Z,5.72
2022-09-22T20:12:59.927Z,5.55
2022-09-22T20:15:48.037Z,5.85
2022-09-22T20:18:15.761Z,6.35
2022-09-22T20:20:45.179Z,5.97
2022-09-22T20:23:21.091Z,5.50
2022-09-22T20:25:52.622Z,5.00
2022-09-22T20:28:21.329Z,5.63
2022-09-22T20:30:53.434Z,5.13
2022-09-22T20:33:24.638Z,5.50
2022-09-22T20:35:55.788Z,5.85
2022-09-22T20:38:26.621Z,6.43
2022-09-22T20:40:54.373Z,6.47
2022-09-22T20:43:21.993Z,6.40
2022-09-22T20:45:49.920Z,6.20
2022-09-22T20:48:23.508Z,6.38
2022-09-22T20:50:58.642Z,6.40
2022-09-22T20:53:29.996Z,6.97
2022-09-22T20:56:08.525Z,6.47
2022-09-22T20:58:50.815Z,5.45
2022-09-22T21:01:19.155Z,6.65
2022-09-22T21:03:47.262Z,6.63
2022-09-22T21:06:16.306Z,6.53
2022-09-22T21:09:03.277Z,7.25
2022-09-22T21:14:05.888Z,7.18
2022-09-22T21:16:37.585Z,7.63
2022-09-22T21:19:04.715Z,8.10
2022-09-22T21:21:32.989Z,8.15
2022-09-22T21:24:09.532Z,8.27
2022-09-22T21:26:37.487Z,9.77
2022-09-22T21:29:05.467Z,8.18
2022-09-22T21:31:33.597Z,8.60
2022-09-22T21:34:00.715Z,7.32
2022-09-22T21:36:27.638Z,7.90
2022-09-22T21:38:57.236Z,7.90
2022-09-22T21:41:27.304Z,8.95
2022-09-22T21:43:55.166Z,7.93
2022-09-22T21:46:29.790Z,8.15
2022-09-22T21:49:00.858Z,7.60
2022-09-22T21:51:30.390Z,8.45
2022-09-22T21:53:58.879Z,7.75
2022-09-22T21:56:27.364Z,7.78
2022-09-22T21:58:56.408Z,8.48
2022-09-22T22:01:26.399Z,8.57
2022-09-22T22:03:57.014Z,7.70
2022-09-22T22:06:33.027Z,8.20
2022-09-22T22:09:04.885Z,8.52
2022-09-22T22:11:38.323Z,9.15
2022-09-22T22:14:08.827Z,8.48
2022-09-22T22:16:38.873Z,8.52
2022-09-22T22:19:08.585Z,8.57
2022-09-22T22:21:37.139Z,7.40
2022-09-22T22:24:14.535Z,7.53
2022-09-22T22:26:43.586Z,6.82
2022-09-22T22:29:14.464Z,7.50
2022-09-22T22:31:42.683Z,6.75
2022-09-22T22:34:12.945Z,7.25
2022-09-22T22:36:41.546Z,6.85
2022-09-22T22:39:13.308Z,7.70
2022-09-22T22:41:44.959Z,7.65
2022-09-22T22:44:17.004Z,6.88
2022-09-22T22:46:45.682Z,8.10
2022-09-22T22:49:14.279Z,8.05
2022-09-22T22:51:43.575Z,7.65
2022-09-22T22:54:12.298Z,8.88
2022-09-22T22:56:42.844Z,8.23
2022-09-22T22:59:12.125Z,7.95
2022-09-22T23:01:40.785Z,7.13
2022-09-22T23:04:10.726Z,6.18
2022-09-22T23:06:44.591Z,6.50
2022-09-22T23:09:15.480Z,6.97
2022-09-22T23:11:44.165Z,6.80
2022-09-22T23:14:13.222Z,7.63
2022-09-22T23:16:45.871Z,7.30
2022-09-22T23:19:18.504Z,6.15
2022-09-22T23:21:46.463Z,6.78
2022-09-22T23:24:16.688Z,6.82
2022-09-22T23:26:45.587Z,6.53
2022-09-22T23:29:12.973Z,6.20
2022-09-22T23:31:39.815Z,6.53
2022-09-22T23:34:06.902Z,6.75
2022-09-22T23:36:33.736Z,6.32
2022-09-22T23:39:04.127Z,5.68
2022-09-22T23:41:36.385Z,6.90
2022-09-22T23:44:06.828Z,6.05
2022-09-22T23:46:34.314Z,5.85
2022-09-22T23:49:01.262Z,6.85
2022-09-22T23:51:28.369Z,6.35
2022-09-22T23:53:56.199Z,6.65
2022-09-22T23:56:23.616Z,6.25
2022-09-22T23:58:53.960Z,6.28
